Sarah Schulte — 5BPA3 — position and weather

sailwx.info

Track history (hours):
 
Tides and Currents Weather Stations Pressure Air Temp Water Temp Dewpoint Dewpoint Depression Visibility Wind Speed Wind Dir Waves Ship Positions

Sarah Schulte

Last reported at 2015-Jan-13 04:06 UTC. Time now 2015-Jan-31 07:04 UTC.
Position N 01°17' E 103°45'.
Warning: this ship's position is 18 days out of date.

Length 222 m; draft 10.8 m.

Type: Ship. MMSI: 210409000.

Date/timePositionNaut miles runAvg speedWind from/ knotsBaromVisibWave heightAir tempDewpointWater temp
2015-Jan-13 04:06N 01°17' E 103°45'1 0.3
2015-Jan-12 23:21N 01°16' E 103°46'  
2015-Jan-10 03:16N 01°14' E 103°55'  
2015-Jan-06 09:33N 22°19' E 114°06'2 0.1
2015-Jan-05 22:13N 22°20' E 114°07'0 0.0
2015-Jan-05 21:03N 22°20' E 114°07'0 0.0
2015-Jan-05 20:03N 22°20' E 114°07'0 0.0
2015-Jan-05 18:31N 22°20' E 114°07'135 4.9
2015-Jan-04 15:05N 22°37' E 116°32'1012.2
2015-Jan-04 14:16N 22°41' E 116°42'1 1.9
2015-Jan-04 13:33N 22°41' E 116°44'0 0.3
2015-Jan-04 12:05N 22°41' E 116°44'0 0.2
2015-Jan-04 11:28N 22°41' E 116°44'119 7.7
2015-Jan-03 20:09N 24°00' E 118°19'10 9.9
2015-Jan-03 19:08N 24°10' E 118°19'915.0
2015-Jan-03 18:33N 24°15' E 118°11'1212.5
2015-Jan-03 17:33N 24°26' E 118°04'5 3.8
2015-Jan-03 16:13N 24°31' E 118°05'0 0.0
2015-Jan-03 15:13N 24°31' E 118°05'0 0.0
2015-Jan-03 14:28N 24°31' E 118°05'0 0.0
2015-Jan-03 13:12N 24°31' E 118°05'0 0.0
2015-Jan-03 12:08N 24°31' E 118°05'2 3.2
2015-Jan-03 11:32N 24°29' E 118°04'  
Track history (hours):
 
Tides and Currents Weather Stations Pressure Air Temp Water Temp Dewpoint Dewpoint Depression Visibility Wind Speed Wind Dir Waves Ship Positions

Sarah Schulte

Last reported at 2015-Jan-13 04:06 UTC. Time now 2015-Jan-31 07:04 UTC.
Position N 01°17' E 103°45'.
Warning: this ship's position is 18 days out of date.

Length 222 m; draft 10.8 m.

Type: Ship. MMSI: 210409000.

Date/timePositionNaut miles runAvg speedWind from/ knotsBaromVisibWave heightAir tempDewpointWater temp
2015-Jan-13 04:06N 01°17' E 103°45'1 0.3
2015-Jan-12 23:21N 01°16' E 103°46'  
2015-Jan-10 03:16N 01°14' E 103°55'  
2015-Jan-06 09:33N 22°19' E 114°06'2 0.1
2015-Jan-05 22:13N 22°20' E 114°07'0 0.0
2015-Jan-05 21:03N 22°20' E 114°07'0 0.0
2015-Jan-05 20:03N 22°20' E 114°07'0 0.0
2015-Jan-05 18:31N 22°20' E 114°07'135 4.9
2015-Jan-04 15:05N 22°37' E 116°32'1012.2
2015-Jan-04 14:16N 22°41' E 116°42'1 1.9
2015-Jan-04 13:33N 22°41' E 116°44'0 0.3
2015-Jan-04 12:05N 22°41' E 116°44'0 0.2
2015-Jan-04 11:28N 22°41' E 116°44'119 7.7
2015-Jan-03 20:09N 24°00' E 118°19'10 9.9
2015-Jan-03 19:08N 24°10' E 118°19'915.0
2015-Jan-03 18:33N 24°15' E 118°11'1212.5
2015-Jan-03 17:33N 24°26' E 118°04'5 3.8
2015-Jan-03 16:13N 24°31' E 118°05'0 0.0
2015-Jan-03 15:13N 24°31' E 118°05'0 0.0
2015-Jan-03 14:28N 24°31' E 118°05'0 0.0
2015-Jan-03 13:12N 24°31' E 118°05'0 0.0
2015-Jan-03 12:08N 24°31' E 118°05'2 3.2
2015-Jan-03 11:32N 24°29' E 118°04'  

Dump ship's entire track history